Terminal Aerodrome Forecast
Issued by NWS Brownsville, TX

Current Version | Previous Version | Text Only | Print | Product List | Glossary On
Versions: 1 2 3 4 5 6 7 8 9 10 11 12 13 14 15 16 17
000
FTUS44 KBRO 041134
TAFHRL
TAF
KHRL 041134Z 0412/0512 16015KT P6SM OVC013
     FM041500 17018G25KT P6SM BKN025
     FM050100 15010KT 5SM BR BKN015
     FM050400 16010KT 6SM BR OVC007
     FM050900 05011KT 4SM BR VCSH OVC003
     FM051100 02018G24KT 6SM -SHRA BR OVC007=

USA.gov is the U.S. government's official web portal to all federal, state and local government web resources and services.